Details From EGBB - Birmingham
To EGHI - Southampton
Flight Number -
Tags decoded
Created
Modified
Stats Distance 97 nm / 179 km
Max Altitude 0 ft / 0 m
Waypoints 5
Social Downloads 3
Likes 1
Share VATSIM

Download

Looking for another format? Having issues loading an existing format? Contact us
Advertisement - Login to hide

Notes

Requested: EGBB BIR01 IBM01MAPLE HON14 NORRY EGHI Unmatched points: IBM01MAPLE

Route

EGBB BIR01 HON14 NORRY EGHI

ID Type Via Altitude Latitude Longitude Leg Dist Tot Dist Heading (true) Name
O EGBB APT - 0 ft / 0 m 52.45597˚ -1.75038˚ - 0 nm - Birmingham
BIR01 FIX - 0 ft / 0 m 52.44025˚ -1.73281˚ 1 nm 1 nm 146° / 146° -
HON14 FIX - 0 ft / 0 m 52.26996˚ -1.53645˚ 12 nm 13 nm 145° / 145° -
NORRY FIX - 0 ft / 0 m 51.47972˚ -1.12333˚ 49 nm 63 nm 162° / 162° -
O EGHI APT - 0 ft / 0 m 50.95026˚ -1.35681˚ 32 nm 96 nm 196° / 195° Southampton

Altitude Profile

Advertisement - Login to hide

EGBB

Details ICAO EGBB (BHX)
Name Birmingham
Region United Kingdom
Timezone Europe/London (UTC+1.0)
Stats Elevation 327 ft / 100 m (AMSL)
Location 52.455966° -1.750378°
Runways 1
Magnetic Variation 1.073° W

METAR

EGBB 232120Z 03012KT CAVOK 13/09 Q1025

Decode

TAF

TAF EGBB 231705Z 2318/2418 03009KT 9999 FEW040 BECMG 2322/2401 BKN014 TEMPO 2401/2408 7000 BKN009 PROB30 TEMPO 2404/2409 SHRA BECMG 2408/2411 BKN018

Decode

Departure Runways

ID Width Length Bearing (true) Bearing (mag) Surface Threshold Offset Overrun Length
15 151 ft / 46 m 8,477 ft / 2,584 m 145.87° 146.94° Asphalt 925 ft / 282 m 0 ft / 0 m
33 151 ft / 46 m 8,477 ft / 2,584 m 325.89° 326.96° Asphalt 958 ft / 292 m 0 ft / 0 m

EGHI

Details ICAO EGHI (SOU)
Name Southampton
Region United Kingdom
Timezone Europe/London (UTC+1.0)
Stats Elevation 44 ft / 13 m (AMSL)
Location 50.950255° -1.356806°
Runways 1
Magnetic Variation 0.748° W

METAR

EGHI 232120Z 02005KT 350V050 9999 SCT045 13/11 Q1022

Decode

TAF

Not found

Destination Runways

ID Width Length Bearing (true) Bearing (mag) Surface Threshold Offset Overrun Length
02 121 ft / 37 m 5,650 ft / 1,722 m 19.33° 20.08° Asphalt 240 ft / 73 m 0 ft / 0 m
20 121 ft / 37 m 5,650 ft / 1,722 m 199.34° 200.09° Asphalt 144 ft / 44 m 0 ft / 0 m

Approach Navaids

Runway Type Ident Frequency Range Bearing (true) Bearing (mag) Slope Elevation
20 Localiser ISN 110.75 MHz 18 nm / 33 km 199.34° 200.09° - 44 ft / 13 m (AMSL)
20 Glidescope ISN 110.75 MHz 10 nm / 19 km 199.34° 200.09° 3.10° 44 ft / 13 m (AMSL)
20 DME ISN 110.75 MHz 18 nm / 33 km - - - 54 ft / 16 m (AMSL)

Popular Alternatives